createdAt,value
2017-08-18T00:00:04.224Z,9.50
2017-08-18T00:02:31.701Z,12.07
2017-08-18T00:04:59.200Z,10.57
2017-08-18T00:07:26.672Z,11.40
2017-08-18T00:09:54.160Z,10.93
2017-08-18T00:12:21.897Z,12.57
2017-08-18T00:14:49.380Z,11.57
2017-08-18T00:17:16.852Z,11.30
2017-08-18T00:19:44.350Z,9.67
2017-08-18T00:22:11.836Z,12.20
2017-08-18T00:24:39.313Z,11.83
2017-08-18T00:27:06.805Z,10.93
2017-08-18T00:29:35.049Z,10.43
2017-08-18T00:32:02.525Z,10.47
2017-08-18T00:34:31.001Z,11.03
2017-08-18T00:36:58.477Z,10.23
2017-08-18T00:39:25.969Z,10.60
2017-08-18T00:41:53.465Z,10.60
2017-08-18T00:44:21.037Z,9.77
2017-08-18T00:46:49.281Z,10.83
2017-08-18T00:49:16.783Z,9.60
2017-08-18T00:51:45.025Z,10.07
2017-08-18T00:54:12.507Z,10.70
2017-08-18T00:56:40.853Z,9.20
2017-08-18T00:59:08.439Z,10.27
2017-08-18T01:01:36.864Z,9.90
2017-08-18T01:04:04.449Z,9.20
2017-08-18T01:06:31.925Z,9.13
2017-08-18T01:08:59.641Z,9.00
2017-08-18T01:11:27.133Z,9.37
2017-08-18T01:13:54.605Z,8.90
2017-08-18T01:16:22.085Z,10.30
2017-08-18T01:18:50.349Z,13.03
2017-08-18T01:21:18.595Z,10.10
2017-08-18T01:23:46.069Z,10.80
2017-08-18T01:26:13.564Z,11.80
2017-08-18T01:28:41.037Z,11.50
2017-08-18T01:31:37.445Z,11.60
2017-08-18T01:34:04.926Z,10.40
2017-08-18T01:36:32.405Z,11.53
2017-08-18T01:38:59.904Z,10.90
2017-08-18T01:41:28.149Z,11.27
2017-08-18T01:43:55.624Z,9.80
2017-08-18T01:46:23.889Z,11.67
2017-08-18T01:48:51.365Z,10.40
2017-08-18T01:51:19.608Z,10.57
2017-08-18T01:53:47.101Z,11.10
2017-08-18T01:56:15.345Z,9.70
2017-08-18T01:58:42.826Z,10.27
2017-08-18T02:01:11.095Z,10.70
2017-08-18T02:03:38.572Z,10.10
2017-08-18T02:06:06.817Z,10.10
2017-08-18T02:08:34.544Z,10.50
2017-08-18T02:11:02.020Z,10.03
2017-08-18T02:13:29.509Z,12.07
2017-08-18T02:15:57.890Z,9.70
2017-08-18T02:18:26.132Z,9.37
2017-08-18T02:20:53.613Z,10.37
2017-08-18T02:23:21.181Z,9.80
2017-08-18T02:25:49.425Z,9.70
2017-08-18T02:28:16.901Z,10.70
2017-08-18T02:30:44.778Z,10.80
2017-08-18T02:33:13.021Z,10.73
2017-08-18T02:35:40.498Z,10.43
2017-08-18T02:38:07.995Z,9.00
2017-08-18T02:40:35.472Z,10.27
2017-08-18T02:43:02.955Z,10.53
2017-08-18T02:45:30.538Z,10.80
2017-08-18T02:47:58.010Z,9.73
2017-08-18T02:50:26.481Z,10.77
2017-08-18T02:52:54.741Z,10.93
2017-08-18T02:55:22.217Z,11.50
2017-08-18T02:57:50.465Z,10.30
2017-08-18T03:00:17.960Z,12.30
2017-08-18T03:02:46.201Z,12.67
2017-08-18T03:05:13.677Z,12.70
2017-08-18T03:07:41.937Z,11.83
2017-08-18T03:10:09.409Z,11.30
2017-08-18T03:12:37.651Z,10.97
2017-08-18T03:15:05.209Z,10.33
2017-08-18T03:17:32.694Z,9.80
2017-08-18T03:20:00.169Z,11.53
2017-08-18T03:22:28.689Z,12.40
2017-08-18T03:24:56.168Z,12.70
2017-08-18T03:27:23.649Z,11.20
2017-08-18T03:29:51.153Z,11.60
2017-08-18T03:32:18.629Z,10.80
2017-08-18T03:34:46.101Z,11.77
2017-08-18T03:37:13.601Z,10.13
2017-08-18T03:39:41.081Z,11.10
2017-08-18T03:42:08.616Z,11.67
2017-08-18T03:44:36.117Z,11.47
2017-08-18T03:47:03.598Z,10.80
2017-08-18T03:49:31.076Z,12.30
2017-08-18T03:51:59.428Z,10.97
2017-08-18T03:54:26.906Z,11.70
2017-08-18T03:56:55.189Z,10.73
2017-08-18T03:59:23.461Z,10.33
2017-08-18T04:01:51.697Z,9.70
2017-08-18T04:04:19.178Z,11.20
2017-08-18T04:06:46.673Z,11.23
2017-08-18T04:09:14.149Z,9.70
2017-08-18T04:11:41.625Z,11.23
2017-08-18T04:14:09.125Z,11.40
2017-08-18T04:16:37.368Z,9.87
2017-08-18T04:19:04.837Z,9.67
2017-08-18T04:21:32.413Z,11.80
2017-08-18T04:24:00.657Z,9.77
2017-08-18T04:26:28.136Z,10.50
2017-08-18T04:28:55.642Z,11.00
2017-08-18T04:31:23.200Z,11.40
2017-08-18T04:33:50.676Z,12.17
2017-08-18T04:36:18.173Z,11.30
2017-08-18T04:38:46.417Z,11.70
2017-08-18T04:41:13.897Z,11.20
2017-08-18T04:43:41.404Z,11.50
2017-08-18T04:46:08.881Z,11.27
2017-08-18T04:48:36.356Z,10.20
2017-08-18T04:51:03.921Z,10.33
2017-08-18T04:53:31.393Z,12.37
2017-08-18T04:55:59.641Z,11.37
2017-08-18T04:58:27.145Z,9.67
2017-08-18T05:00:54.635Z,9.90
2017-08-18T05:03:22.113Z,12.03
2017-08-18T05:05:49.609Z,10.47
2017-08-18T05:08:17.850Z,10.03
2017-08-18T05:10:45.324Z,14.43
2017-08-18T05:13:13.605Z,9.80
2017-08-18T05:15:41.207Z,9.17
2017-08-18T05:18:08.689Z,10.47
2017-08-18T05:20:36.180Z,9.50
2017-08-18T05:23:04.417Z,8.00
2017-08-18T05:25:31.885Z,8.80
2017-08-18T05:27:59.377Z,7.77
2017-08-18T05:30:27.621Z,7.63
2017-08-18T05:32:55.097Z,8.17
2017-08-18T05:35:23.361Z,8.30
2017-08-18T05:37:50.833Z,8.50
2017-08-18T05:40:19.077Z,6.67
2017-08-18T05:42:46.574Z,7.53
2017-08-18T05:45:14.840Z,7.83
2017-08-18T05:47:43.076Z,8.37
2017-08-18T05:50:10.570Z,6.30
2017-08-18T05:52:38.809Z,6.77
2017-08-18T05:55:06.558Z,8.40
2017-08-18T05:57:34.070Z,6.53
2017-08-18T06:00:02.308Z,8.80
2017-08-18T06:02:29.781Z,8.13
2017-08-18T06:04:57.669Z,7.80
2017-08-18T06:07:25.917Z,8.10
2017-08-18T06:09:53.401Z,7.50
2017-08-18T06:12:21.661Z,8.13
2017-08-18T06:14:49.137Z,8.13
2017-08-18T06:17:17.378Z,8.17
2017-08-18T06:19:44.873Z,9.00
2017-08-18T06:22:13.109Z,7.37
2017-08-18T06:24:40.582Z,7.77
2017-08-18T06:27:08.073Z,7.93
2017-08-18T06:29:35.545Z,6.90
2017-08-18T06:32:03.021Z,8.93
2017-08-18T06:34:30.517Z,8.67
2017-08-18T06:36:57.990Z,7.57
2017-08-18T06:39:26.229Z,7.60
2017-08-18T06:41:53.725Z,7.40
2017-08-18T06:44:21.961Z,8.47
2017-08-18T06:46:49.434Z,6.83
2017-08-18T06:49:16.946Z,6.57
2017-08-18T06:51:44.415Z,7.10
2017-08-18T06:54:11.885Z,7.23
2017-08-18T06:56:39.377Z,7.20
2017-08-18T06:59:07.613Z,6.67
2017-08-18T07:01:35.085Z,6.83
2017-08-18T07:04:02.577Z,5.43
2017-08-18T07:06:30.813Z,6.83
2017-08-18T07:08:58.549Z,7.97
2017-08-18T07:11:26.041Z,5.80
2017-08-18T07:13:53.516Z,5.83
2017-08-18T07:16:21.013Z,6.40
2017-08-18T07:18:48.505Z,6.03
2017-08-18T07:21:15.977Z,5.53
2017-08-18T07:23:43.701Z,5.90
2017-08-18T07:26:11.196Z,6.10
2017-08-18T07:28:38.668Z,5.33
2017-08-18T07:31:06.905Z,5.00
2017-08-18T07:33:34.397Z,4.60
2017-08-18T07:36:02.633Z,4.10
2017-08-18T07:38:30.113Z,4.07
2017-08-18T07:40:57.612Z,4.60
2017-08-18T07:43:25.085Z,5.50
2017-08-18T07:45:52.557Z,4.13
2017-08-18T07:48:20.045Z,4.87
2017-08-18T07:50:47.518Z,4.73
2017-08-18T07:53:15.753Z,5.00
2017-08-18T07:55:43.251Z,4.93
2017-08-18T07:58:12.078Z,4.80
2017-08-18T08:00:39.577Z,4.27
2017-08-18T08:03:07.853Z,5.27
2017-08-18T08:05:35.326Z,4.93
2017-08-18T08:08:03.564Z,4.53
2017-08-18T08:10:31.062Z,4.50
2017-08-18T08:12:59.301Z,5.10
2017-08-18T08:15:26.772Z,4.90
2017-08-18T08:17:54.269Z,4.90
2017-08-18T08:20:21.748Z,4.23
2017-08-18T08:22:49.223Z,4.40
2017-08-18T08:25:16.717Z,3.70
2017-08-18T08:27:44.953Z,4.40
2017-08-18T08:30:12.433Z,4.37
2017-08-18T08:32:39.929Z,4.27
2017-08-18T08:35:07.402Z,3.97
2017-08-18T08:37:34.873Z,3.80
2017-08-18T08:40:02.365Z,3.30
2017-08-18T08:42:29.841Z,4.17
2017-08-18T08:44:58.086Z,3.90
2017-08-18T08:47:25.578Z,2.50
2017-08-18T08:49:53.813Z,3.63
2017-08-18T08:52:21.302Z,3.30
2017-08-18T08:54:49.837Z,3.30
2017-08-18T08:57:17.350Z,4.10
2017-08-18T08:59:44.822Z,2.60
2017-08-18T09:02:12.361Z,4.37
2017-08-18T09:04:40.597Z,3.10
2017-08-18T09:07:08.073Z,3.43
2017-08-18T09:09:35.565Z,2.80
2017-08-18T09:12:04.400Z,2.97
2017-08-18T09:14:31.873Z,2.43
2017-08-18T09:16:59.365Z,2.70
2017-08-18T09:19:27.601Z,2.47
2017-08-18T09:21:55.085Z,3.07
2017-08-18T09:24:23.349Z,3.20
2017-08-18T09:26:50.827Z,2.20
2017-08-18T09:29:19.214Z,2.70
2017-08-18T09:31:46.709Z,2.63
2017-08-18T09:34:14.177Z,3.17
2017-08-18T09:36:41.645Z,2.87
2017-08-18T09:39:09.142Z,3.10
2017-08-18T09:41:36.723Z,2.50
2017-08-18T09:44:04.197Z,2.50
2017-08-18T09:46:31.699Z,3.20
2017-08-18T09:49:12.205Z,3.10
2017-08-18T09:51:51.553Z,2.30
2017-08-18T09:54:31.075Z,3.77
2017-08-18T09:57:10.417Z,2.80
2017-08-18T09:59:37.889Z,3.10
2017-08-18T10:02:05.365Z,2.90
2017-08-18T10:04:32.861Z,2.80
2017-08-18T10:07:00.329Z,3.13
2017-08-18T10:09:27.801Z,3.00
2017-08-18T10:11:55.297Z,2.60
2017-08-18T10:14:22.869Z,2.80
2017-08-18T10:16:50.345Z,2.20
2017-08-18T10:19:17.885Z,3.00
2017-08-18T10:21:46.121Z,1.90
2017-08-18T10:24:13.589Z,2.40
2017-08-18T10:26:41.153Z,2.00
2017-08-18T10:29:08.639Z,2.23
2017-08-18T10:31:36.885Z,3.20
2017-08-18T10:34:04.381Z,2.47
2017-08-18T10:36:32.177Z,2.73
2017-08-18T10:38:59.842Z,3.13
2017-08-18T10:41:27.341Z,2.60
2017-08-18T10:43:55.057Z,2.70
2017-08-18T10:46:22.528Z,2.80
2017-08-18T10:48:50.131Z,2.40
2017-08-18T10:51:17.601Z,2.70
2017-08-18T10:53:45.073Z,2.47
2017-08-18T10:56:12.565Z,2.70
2017-08-18T10:58:40.037Z,2.90
2017-08-18T11:01:07.509Z,2.30
2017-08-18T11:03:35.786Z,2.70
2017-08-18T11:06:03.269Z,2.57
2017-08-18T11:08:30.806Z,2.70
2017-08-18T11:10:58.321Z,3.30
2017-08-18T11:13:25.789Z,3.03
2017-08-18T11:15:53.257Z,2.90
2017-08-18T11:18:20.749Z,3.07
2017-08-18T11:20:48.985Z,3.40
2017-08-18T11:23:16.717Z,3.00
2017-08-18T11:25:44.209Z,3.13
2017-08-18T11:28:12.146Z,3.10
2017-08-18T11:30:39.617Z,3.20
2017-08-18T11:33:07.109Z,3.10
2017-08-18T11:35:35.349Z,2.87
2017-08-18T11:38:03.096Z,4.23
2017-08-18T11:40:30.589Z,3.43
2017-08-18T11:42:58.316Z,3.73
2017-08-18T11:45:25.790Z,3.60
2017-08-18T11:47:53.289Z,3.60
2017-08-18T11:50:21.525Z,3.77
2017-08-18T11:52:48.997Z,3.37
2017-08-18T11:55:16.493Z,3.13
2017-08-18T11:57:43.969Z,2.90
2017-08-18T12:00:11.444Z,3.60
2017-08-18T12:02:38.936Z,2.90
2017-08-18T12:05:06.405Z,2.80
2017-08-18T12:07:34.645Z,2.90
2017-08-18T12:10:02.385Z,2.60
2017-08-18T12:12:29.902Z,2.10
2017-08-18T12:14:58.165Z,3.03
2017-08-18T12:17:25.674Z,2.43
2017-08-18T12:19:53.149Z,2.80
2017-08-18T12:22:20.625Z,3.20
2017-08-18T12:24:48.117Z,2.60
2017-08-18T12:27:15.590Z,2.70
2017-08-18T12:29:43.058Z,2.90
2017-08-18T12:32:10.553Z,2.80
2017-08-18T12:34:38.025Z,2.80
2017-08-18T12:37:06.312Z,2.30
2017-08-18T12:39:34.569Z,3.37
2017-08-18T12:42:02.045Z,2.80
2017-08-18T12:44:30.289Z,3.10
2017-08-18T12:46:57.781Z,3.20
2017-08-18T12:49:25.256Z,2.73
2017-08-18T12:51:52.730Z,2.97
2017-08-18T12:54:20.217Z,3.13
2017-08-18T12:56:47.689Z,3.27
2017-08-18T12:59:15.161Z,2.70
2017-08-18T13:01:43.418Z,3.03
2017-08-18T13:04:10.893Z,3.57
2017-08-18T13:06:39.169Z,3.60
2017-08-18T13:09:07.429Z,2.63
2017-08-18T13:11:34.900Z,3.20
2017-08-18T13:14:03.141Z,3.43
2017-08-18T13:16:30.637Z,3.13
2017-08-18T13:18:58.874Z,3.10
2017-08-18T13:21:26.350Z,2.80
2017-08-18T13:23:53.920Z,3.13
2017-08-18T13:26:22.164Z,3.50
2017-08-18T13:28:49.633Z,3.53
2017-08-18T13:31:17.129Z,3.50
2017-08-18T13:33:44.921Z,3.03
2017-08-18T13:36:12.393Z,4.37
2017-08-18T13:38:39.893Z,4.30
2017-08-18T13:41:08.125Z,4.50
2017-08-18T13:43:35.593Z,4.00
2017-08-18T13:46:03.090Z,3.90
2017-08-18T13:48:30.566Z,5.00
2017-08-18T13:50:58.256Z,4.27
2017-08-18T13:53:26.549Z,4.03
2017-08-18T13:55:54.025Z,3.57
2017-08-18T13:58:22.265Z,4.07
2017-08-18T14:00:49.765Z,4.97
2017-08-18T14:03:18.004Z,4.07
2017-08-18T14:05:45.482Z,3.73
2017-08-18T14:08:12.976Z,3.40
2017-08-18T14:10:40.453Z,3.63
2017-08-18T14:13:07.927Z,3.90
2017-08-18T14:15:35.429Z,3.90
2017-08-18T14:18:03.669Z,3.10
2017-08-18T14:20:31.141Z,3.33
2017-08-18T14:22:58.958Z,3.50
2017-08-18T14:25:32.247Z,3.80
2017-08-18T14:27:59.742Z,3.30
2017-08-18T14:30:27.473Z,2.90
2017-08-18T14:32:54.944Z,3.50
2017-08-18T14:35:22.445Z,3.37
2017-08-18T14:37:50.686Z,3.87
2017-08-18T14:40:18.169Z,4.57
2017-08-18T14:42:46.700Z,3.57
2017-08-18T14:45:14.176Z,4.00
2017-08-18T14:47:41.662Z,3.80
2017-08-18T14:50:09.166Z,2.70
2017-08-18T14:52:36.665Z,4.07
2017-08-18T14:55:04.138Z,3.80
2017-08-18T14:57:32.397Z,3.83
2017-08-18T14:59:59.878Z,3.70
2017-08-18T15:02:30.042Z,4.23
2017-08-18T15:04:57.536Z,3.10
2017-08-18T15:07:25.010Z,3.53
2017-08-18T15:09:53.249Z,3.03
2017-08-18T15:12:20.745Z,3.50
2017-08-18T15:14:48.985Z,3.03
2017-08-18T15:17:17.898Z,2.10
2017-08-18T15:19:47.974Z,3.00
2017-08-18T15:22:17.802Z,2.37
2017-08-18T15:24:46.305Z,1.97
2017-08-18T15:27:15.741Z,1.83
2017-08-18T15:29:46.115Z,1.80
2017-08-18T15:32:14.540Z,2.50
2017-08-18T15:34:43.794Z,1.90
2017-08-18T15:37:13.079Z,2.57
2017-08-18T15:39:42.841Z,2.30
2017-08-18T15:42:12.205Z,2.00
2017-08-18T15:44:39.697Z,1.87
2017-08-18T15:47:07.953Z,2.70
2017-08-18T15:49:35.680Z,3.07
2017-08-18T15:52:03.152Z,3.80
2017-08-18T15:54:30.649Z,2.53
2017-08-18T15:56:58.913Z,3.30
2017-08-18T15:59:27.445Z,2.80
2017-08-18T16:01:55.529Z,3.17
2017-08-18T16:04:23.002Z,3.30
2017-08-18T16:06:50.473Z,3.93
2017-08-18T16:09:17.973Z,44.57
2017-08-18T16:11:45.562Z,56.83
2017-08-18T16:14:13.066Z,13.27
2017-08-18T16:16:40.572Z,21.20
2017-08-18T16:19:08.326Z,4.30
2017-08-18T16:21:37.663Z,2.43
2017-08-18T16:24:05.158Z,2.77
2017-08-18T16:26:32.675Z,1.67
2017-08-18T16:29:00.158Z,2.40
2017-08-18T16:31:28.310Z,2.10
2017-08-18T16:33:56.798Z,2.03
2017-08-18T16:36:24.649Z,2.00
2017-08-18T16:38:52.165Z,1.47
2017-08-18T16:41:19.646Z,1.30
2017-08-18T16:43:47.118Z,1.43
2017-08-18T16:46:15.162Z,1.80
2017-08-18T16:48:43.809Z,2.00
2017-08-18T16:51:12.443Z,2.07
2017-08-18T16:53:40.818Z,1.03
2017-08-18T16:56:08.322Z,1.43
2017-08-18T16:58:36.565Z,1.10
2017-08-18T17:01:04.069Z,1.30
2017-08-18T17:03:31.546Z,0.70
2017-08-18T17:05:59.022Z,1.00
2017-08-18T17:08:26.533Z,1.10
2017-08-18T17:10:54.929Z,0.90
2017-08-18T17:13:22.413Z,1.43
2017-08-18T17:15:49.905Z,1.33
2017-08-18T17:18:17.389Z,1.30
2017-08-18T17:20:44.866Z,0.97
2017-08-18T17:23:12.361Z,1.00
2017-08-18T17:25:39.857Z,1.27
2017-08-18T17:28:07.330Z,0.73
2017-08-18T17:30:34.848Z,0.80
2017-08-18T17:33:03.101Z,0.93
2017-08-18T17:35:30.693Z,1.87
2017-08-18T17:37:59.006Z,1.00
2017-08-18T17:40:26.486Z,1.03
2017-08-18T17:42:53.971Z,0.93
2017-08-18T17:45:21.606Z,0.70
2017-08-18T17:47:49.093Z,0.70
2017-08-18T17:50:16.581Z,0.70
2017-08-18T17:52:44.074Z,0.80
2017-08-18T17:55:11.545Z,0.70
2017-08-18T17:57:39.017Z,0.80
2017-08-18T18:00:06.513Z,0.70
2017-08-18T18:02:33.985Z,0.70
2017-08-18T18:05:01.457Z,0.70
2017-08-18T18:07:28.949Z,0.70
2017-08-18T18:09:56.422Z,0.73
2017-08-18T18:12:23.913Z,1.13
2017-08-18T18:14:51.428Z,1.00
2017-08-18T18:17:19.665Z,1.40
2017-08-18T18:19:47.137Z,1.00
2017-08-18T18:22:14.629Z,0.70
2017-08-18T18:24:42.865Z,0.93
2017-08-18T18:27:10.341Z,8.13
2017-08-18T18:29:37.837Z,1.50
2017-08-18T18:32:05.313Z,1.00
2017-08-18T18:34:32.781Z,0.70
2017-08-18T18:37:00.274Z,1.10
2017-08-18T18:39:27.757Z,0.90
2017-08-18T18:41:55.229Z,0.70
2017-08-18T18:44:22.725Z,0.80
2017-08-18T18:46:50.197Z,0.70
2017-08-18T18:49:17.665Z,0.80
2017-08-18T18:51:45.929Z,0.83
2017-08-18T18:54:13.401Z,0.60
2017-08-18T18:56:41.637Z,0.73
2017-08-18T18:59:09.381Z,1.03
2017-08-18T19:01:36.845Z,0.60
2017-08-18T19:04:04.325Z,1.07
2017-08-18T19:06:31.813Z,0.87
2017-08-18T19:09:00.053Z,1.00
2017-08-18T19:11:27.528Z,1.00
2017-08-18T19:13:55.025Z,0.70
2017-08-18T19:16:22.501Z,0.60
2017-08-18T19:18:50.193Z,0.80
2017-08-18T19:21:17.801Z,0.90
2017-08-18T19:23:45.276Z,0.90
2017-08-18T19:26:12.783Z,1.20
2017-08-18T19:28:41.049Z,1.10
2017-08-18T19:31:08.529Z,0.73
2017-08-18T19:33:36.774Z,1.40
2017-08-18T19:36:04.269Z,0.97
2017-08-18T19:38:31.743Z,0.93
2017-08-18T19:40:59.223Z,1.00
2017-08-18T19:43:26.978Z,1.20
2017-08-18T19:45:54.454Z,1.20
2017-08-18T19:48:21.925Z,1.77
2017-08-18T19:50:49.425Z,1.10
2017-08-18T19:53:16.894Z,1.10
2017-08-18T19:55:45.260Z,1.23
2017-08-18T19:58:13.257Z,1.43
2017-08-18T20:00:40.736Z,1.40
2017-08-18T20:03:08.213Z,1.10
2017-08-18T20:05:35.705Z,1.70
2017-08-18T20:08:03.198Z,1.33
2017-08-18T20:10:30.670Z,1.80
2017-08-18T20:12:58.169Z,1.63
2017-08-18T20:15:25.646Z,2.50
2017-08-18T20:17:53.125Z,2.70
2017-08-18T20:20:20.618Z,1.50
2017-08-18T20:22:48.853Z,1.20
2017-08-18T20:25:16.329Z,0.97
2017-08-18T20:27:43.830Z,1.10
2017-08-18T20:30:11.340Z,1.50
2017-08-18T20:32:38.825Z,0.83
2017-08-18T20:35:07.090Z,0.97
2017-08-18T20:37:34.566Z,1.20
2017-08-18T20:40:02.058Z,1.47
2017-08-18T20:42:29.574Z,1.67
2017-08-18T20:44:57.813Z,1.27
2017-08-18T20:47:25.580Z,1.27
2017-08-18T20:49:53.321Z,1.40
2017-08-18T20:52:20.793Z,1.43
2017-08-18T20:54:48.261Z,1.27
2017-08-18T20:57:15.754Z,1.10
2017-08-18T20:59:43.991Z,1.07
2017-08-18T21:02:11.465Z,1.03
2017-08-18T21:04:39.049Z,1.27
2017-08-18T21:07:07.285Z,1.30
2017-08-18T21:09:34.754Z,1.17
2017-08-18T21:12:02.249Z,1.20
2017-08-18T21:14:29.724Z,1.10
2017-08-18T21:16:57.198Z,1.83
2017-08-18T21:19:24.688Z,1.30
2017-08-18T21:21:52.164Z,1.13
2017-08-18T21:24:20.405Z,2.03
2017-08-18T21:26:47.905Z,2.73
2017-08-18T21:29:15.394Z,2.20
2017-08-18T21:31:42.865Z,1.13
2017-08-18T21:34:10.358Z,1.23
2017-08-18T21:36:38.633Z,1.30
2017-08-18T21:39:06.869Z,1.40
2017-08-18T21:41:34.365Z,1.60
2017-08-18T21:44:02.617Z,1.10
2017-08-18T21:46:30.086Z,1.27
2017-08-18T21:48:57.577Z,1.03
2017-08-18T21:51:25.050Z,1.33
2017-08-18T21:53:52.520Z,1.10
2017-08-18T21:56:20.015Z,1.23
2017-08-18T21:58:47.488Z,1.27
2017-08-18T22:01:15.725Z,0.97
2017-08-18T22:03:43.221Z,1.73
2017-08-18T22:06:11.457Z,1.00
2017-08-18T22:08:38.936Z,1.17
2017-08-18T22:11:06.425Z,1.03
2017-08-18T22:13:33.900Z,1.20
2017-08-18T22:16:01.381Z,1.40
2017-08-18T22:18:28.926Z,1.13
2017-08-18T22:20:56.397Z,1.60
2017-08-18T22:23:23.869Z,1.40
2017-08-18T22:25:51.377Z,0.90
2017-08-18T22:28:18.854Z,1.20
2017-08-18T22:30:46.338Z,1.20
2017-08-18T22:33:13.832Z,0.87
2017-08-18T22:35:42.069Z,1.37
2017-08-18T22:38:09.541Z,0.93
2017-08-18T22:40:37.037Z,1.00
2017-08-18T22:43:04.509Z,1.00
2017-08-18T22:45:31.981Z,1.03
2017-08-18T22:47:59.734Z,1.00
2017-08-18T22:50:27.210Z,1.20
2017-08-18T22:52:54.701Z,1.30
2017-08-18T22:55:22.194Z,1.20
2017-08-18T22:57:49.669Z,1.10
2017-08-18T23:00:17.142Z,1.27
2017-08-18T23:02:44.634Z,1.10
2017-08-18T23:05:13.157Z,1.77
2017-08-18T23:07:40.626Z,1.40
2017-08-18T23:10:08.392Z,1.23
2017-08-18T23:12:35.865Z,1.00
2017-08-18T23:15:03.605Z,1.00
2017-08-18T23:17:31.524Z,1.60
2017-08-18T23:19:59.031Z,1.13
2017-08-18T23:22:26.501Z,1.43
2017-08-18T23:24:53.994Z,1.00
2017-08-18T23:27:22.229Z,0.67
2017-08-18T23:29:49.698Z,2.17
2017-08-18T23:32:17.191Z,1.07
2017-08-18T23:34:45.425Z,1.10
2017-08-18T23:37:13.164Z,1.00
2017-08-18T23:39:40.657Z,0.80
2017-08-18T23:42:08.132Z,0.90
2017-08-18T23:44:36.369Z,1.03
2017-08-18T23:47:03.865Z,1.07
2017-08-18T23:49:32.204Z,1.20
2017-08-18T23:51:59.689Z,1.00
2017-08-18T23:54:27.186Z,0.80
2017-08-18T23:56:54.657Z,0.80
2017-08-18T23:59:22.129Z,1.00
